Cisco Butte, California Weather observations

Data are for observation ending at time listed.
 Day   Time    Ave.   Ave.  Ave.  Vector   Max.   Stn.    Total    Solar   Ave.   Snow 
  of    of     Air    Rel.  Wind   Wind    Wind   Baro.  Precip.   Rad.    Soil   Depth
Year   Day     Temp.  Hum.  Speed  Dir.    Gust   Pres.                    Temp.       
2017   (PST)    F      %     mph   deg.    mph     mb.     in.     W/m2     F      in. 
---------------------------------------------------------------------------------------  
  21    4:50   22.9    95   12.2   268     20.5   803.0    0.00       0    -14710.0   15.8
  21    5:00   22.9    95   12.0   271     22.7   803.0    0.00       0    -14710.0   54.1
  21    5:10   23.1    95   12.2   270     19.2   803.0    0.00       0    -14710.0    9.3
  21    5:20   23.2    95   11.6   264     18.9   803.0    0.00       0    -14710.0    8.8
  21    5:30   23.2    95   11.8   270     18.7   803.0    0.00       0    -14710.0   73.4
  21    5:40   23.2    95   13.9   266     21.0   804.0    0.00       0    -14710.0    6.3
  21    5:50   23.2    95   15.0   266     23.5   804.0    0.00       0    -14710.0  -26.4
  21    6:00   23.2    95   13.2   269     22.1   804.0    0.00       0    -14710.0  -46.9
  21    6:10   23.3    95   12.3   265     22.4   804.0    0.00       0    -14710.0   86.4
  21    6:20   23.3    95   15.9   262     25.3   804.0    0.00       0    -14710.0  -36.8
  21    6:30   23.4    95   15.3   264     24.9   804.0    0.00       0    -14710.0  -29.1
  21    6:40   23.3    95   15.1   262     24.6   805.0    0.00       0    -14710.0   36.3
  21    6:50   23.3    95   16.6   266     28.0   805.0    0.00       0    -14710.0   -6.3
  21    7:00   23.4    95   18.9   270     28.6   805.0    0.00       0    -14710.0  -72.3
  21    7:10   23.6    95   14.7   269     22.2   805.0    0.00       0    -14710.0  -19.3
  21    7:20   23.6    95   17.7   270     28.1   805.0    0.00       0    -14710.0  -54.1
  21    7:30   23.7    95   19.8   268     28.6   806.0    0.00       1    -14710.0  -35.1
  21    7:40   23.8    95   22.5   266     36.8   806.0    0.00       4    -14710.0  -33.6
  21    7:50   23.8    95   20.5   262     35.7   806.0    0.00       6    -14710.0  -78.5
  21    8:00   23.9    95   17.9   271     26.4   806.0    0.00      16    -14710.0  -22.5
  21    8:10   24.0    95   17.1   268     26.7   807.0    0.00      19    -14710.0  -29.9
  21    8:20   24.0    95   15.8   275     25.1   807.0    0.00      12    -14710.0    3.2
  21    8:30   24.0    95   13.7   269     22.8   807.0    0.00      40    -14710.0  -32.9
  21    8:40   24.1    95   15.6   265     27.0   807.0    0.00      28    -14710.0   19.9
  21    8:50   24.2    95   19.3   267     29.4   807.0    0.00      41    -14710.0   18.4
  21    9:00   24.3    95   16.4   267     26.5   808.0    0.00      52    -14710.0  -54.7
  21    9:10   24.4    95   14.7   268     25.1   808.0    0.00      55    -14710.0   -8.4
  21    9:20   24.5    95   17.4   270     34.8   808.0    0.00      64    -14710.0  -55.5
  21    9:30   24.6    95   16.2   267     25.3   808.0    0.00      84    -14710.0   66.2
  21    9:40   24.6    95   15.2   267     23.7   809.0    0.00      70    -14710.0  -115.5
  21    9:50   24.7    95   15.9   268     27.0   809.0    0.00     132    -14710.0   79.1
  21   10:00   25.2    95   17.5   265     27.2   809.0    0.00     112    -14710.0  -11.0
  21   10:10   25.0    95   16.3   266     23.3   809.0    0.00      69    -14710.0    3.3
  21   10:20   24.9    95   16.6   261     27.6   810.0    0.00     116    -14710.0  -67.6
  21   10:30   25.0    95   17.1   264     30.3   810.0    0.00     134    -14710.0  -23.2
  21   10:40   25.1    95   18.0   267     28.5   810.0    0.00     143    -14710.0  -64.4
  21   10:50   25.0    94   16.4   268     30.5   810.0    0.00      87    -14710.0  109.8
  21   11:00   25.0    95   17.4   260     25.1   810.0    0.00     126    -14710.0   -1.2
  21   11:10   25.4    95   15.0   262     22.8   810.0    0.00     133    -14710.0   25.5
  21   11:20   25.6    95   16.4   262     24.5   810.0    0.00     120    -14710.0   15.1
  21   11:30   25.6    95   15.3   264     24.3   811.0    0.00     136    -14710.0  169.4
  21   11:40   25.8    95   15.0   261     28.6   811.0    0.00     165    -14710.0   12.7
  21   11:50   26.1    95   13.5   264     24.6   811.0    0.00     111    -14710.0    1.6
  21   12:00   25.8    94   18.2   258     29.4   811.0    0.00     162    -14710.0   50.1
  21   12:10   25.8    94   18.6   263     29.1   811.0    0.00     138    -14710.0   21.3
  21   12:20   25.6    94   16.6   267     24.5   811.0    0.00     116    -14710.0   30.5
  21   12:30   25.5    95   15.0   261     25.4   811.0    0.00     112    -14710.0   81.9
  21   12:40   25.6    95   14.5   268     24.5   811.0    0.00     133    -14710.0   94.6
  21   12:50   25.6    95   11.7   260     23.0   811.0    0.00     122    -14710.0   47.5
  21   13:00   26.2    95   13.2   261     24.1   811.0    0.00     135    -14710.0   55.7
  21   13:10   26.2    95   16.4   266     26.5   811.0    0.00     176    -14710.0   46.8
  21   13:20   25.8    94   18.7   266     29.1   811.0    0.00     111    -14710.0   50.1
  21   13:30   25.5    95   14.8   261     23.5   812.0    0.00     124    -14710.0   71.2
  21   13:40   25.8    95   15.3   256     24.3   812.0    0.00     104    -14710.0  103.4
  21   13:50   25.8    95   13.3   263     23.8   812.0    0.00     125    -14710.0   -1.6
  21   14:00   26.1    95    9.9   264     20.0   812.0    0.00     123    -14710.0   88.1
  21   14:10   26.5    95    8.4   265     21.7   812.0    0.00     118    -14710.0  117.1
  21   14:20   26.1    94   11.3   262     25.2   812.0    0.00      99    -14710.0   62.0
  21   14:30   25.9    95   11.5   265     24.2   812.0    0.00     103    -14710.0  113.7
  21   14:40   25.6    95   13.2   267     25.1   812.0    0.00     122    -14710.0  104.9
  21   14:50   25.7    95   10.4   264     22.4   813.0    0.00     105    -14710.0   64.6
  21   15:00   25.5    94   13.3   264     25.8   813.0    0.00      96    -14710.0  -37.8
  21   15:10   25.3    95   10.8   269     19.4   813.0    0.00      77    -14710.0  106.1
  21   15:20   25.4    95    9.5   266     19.5   813.0    0.00      93    -14710.0   40.5
  21   15:30   25.6    95    7.3   253     15.1   813.0    0.00      87    -14710.0   78.3
  21   15:40   25.8    95    6.0   242     21.6   813.0    0.00      73    -14710.0   77.9
  21   15:50   25.7    95    5.9   219     13.1   813.0    0.00      39    -14710.0   77.0
  21   16:00   25.2    95    8.4   213     21.0   813.0    0.00      32    -14710.0   77.9
  21   16:10   24.7    95    6.9   179     20.9   813.0    0.00      26    -14710.0   78.0
  21   16:20   24.5    95    7.6   198     17.3   813.0    0.00      23    -14710.0   77.0
  21   16:30   24.5    95    8.3   199     19.7   813.0    0.00      17    -14710.0   15.3
  21   16:40   24.4    95    6.8   200     16.3   813.0    0.00      12    -14710.0   95.8
  21   16:50   24.4    95    7.5   247     16.3   813.0    0.00       7    -14710.0   78.2
  21   17:00   24.4    95    5.6   234     15.3   814.0    0.00       4    -14710.0   76.6
  21   17:10   24.3    95    7.2   188     16.7   814.0    0.00       3    -14710.0   78.0
  21   17:20   24.2    95    8.0   204     21.0   814.0    0.00       1    -14710.0   78.0
  21   17:30   24.1    95    6.7   211     19.8   814.0    0.00       0    -14710.0   77.1
  21   17:40   24.0    95    7.6   211     18.3   814.0    0.00       0    -14710.0   77.4
  21   17:50   24.1    95    9.0   185     21.5   814.0    0.00       0    -14710.0   78.0
  21   18:00   24.2    95    7.3   198     23.4   814.0    0.00       0    -14710.0   77.8
  21   18:10   24.3    95    9.1   202     21.7   814.0    0.00       0    -14710.0   54.7
  21   18:20   24.2    95    9.2   191     21.5   814.0    0.00       0    -14710.0   77.5
  21   18:30   24.0    95   10.0   204     26.3   814.0    0.00       0    -14710.0   77.9
  21   18:40   24.0    95   10.4   204     26.9   814.0    0.00       0    -14710.0   77.4
  21   18:50   24.1    95   10.4   214     23.5   814.0    0.00       0    -14710.0   76.7
  21   19:00   24.1    95   11.1   200     20.9   814.0    0.00       0    -14710.0   77.4
  21   19:10   24.1    95    9.9   194     22.9   814.0    0.00       0    -14710.0   77.7
  21   19:20   24.0    95    6.6   178     15.1   814.0    0.00       0    -14710.0   77.4
  21   19:30   24.0    95    8.8   190     18.5   813.0    0.00       0    -14710.0   77.2
  21   19:40   24.0    95    9.2   193     19.8   814.0    0.00       0    -14710.0   86.7
  21   19:50   23.9    95    8.6   199     20.4   814.0    0.00       0    -14710.0   77.4
  21   20:00   23.8    95   11.2   192     25.9   814.0    0.00       0    -14710.0   77.3
  21   20:10   23.7    95    9.8   195     21.5   814.0    0.00       0    -14710.0   77.1
  21   20:20   23.6    95   10.3   198     24.9   814.0    0.00       0    -14710.0   77.4
  21   20:30   23.6    95   10.2   214     20.8   814.0    0.00       0    -14710.0   77.4
  21   20:40   23.6    95   10.8   193     23.8   814.0    0.00       0    -14710.0   77.0
  21   20:50   23.7    95   10.4   183     23.2   814.0    0.00       0    -14710.0   77.0
  21   21:00   23.8    95    9.1   162     19.1   814.0    0.00       0    -14710.0   77.2
  21   21:10   23.8    95   10.1   164     19.6   814.0    0.00       0    -14710.0   77.1
  21   21:20   23.9    95   11.1   162     25.6   814.0    0.00       0    -14710.0   54.8
  21   21:30   23.9    95   10.4   148     17.7   814.0    0.00       0    -14710.0   77.0
  21   21:40   23.8    95   13.0   146     24.0   813.0    0.00       0    -14710.0   77.0
  21   21:50   23.8    95   11.9   156     22.8   814.0    0.00       0    -14710.0   77.0
  21   22:00   23.9    95   13.1   142     22.3   813.0    0.00       0    -14710.0   76.6
  21   22:10   23.9    95   13.5   150     23.6   813.0    0.00       0    -14710.0   76.8
  21   22:20   23.9    95   14.7   131     27.7   813.0    0.00       0    -14710.0   76.8
  21   22:30   23.8    95   12.6   143     24.0   812.0    0.00       0    -14710.0   76.6
  21   22:40   23.8    95   11.4   139     18.4   812.0    0.00       0    -14710.0   76.4
  21   22:50   23.8    95   12.6   133     21.0   812.0    0.00       0    -14710.0   76.6
  21   23:00   23.8    95   12.8   124     24.4   812.0    0.00       0    -14710.0   76.6
  21   23:10   23.7    95   11.2   134     17.9   812.0    0.00       0    -14710.0   76.5
  21   23:20   23.8    95   13.1   132     22.9   812.0    0.00       0    -14710.0   75.6
  21   23:30   23.9    95   13.6   132     22.6   812.0    0.00       0    -14710.0   76.4
  21   23:40   24.0    95   10.5   139     20.8   812.0    0.00       0    -14710.0   76.4
  21   23:50   24.1    95   12.7   126     20.3   812.0    0.00       0    -14710.0   53.5
  22    0:00   24.2    95   11.4   137     20.2   812.0    0.00       0    -14710.0   76.1
  22    0:10   24.5    95   11.2   159     26.2   812.0    0.00       0    -14710.0   76.4
  22    0:20   24.7    95   10.9   152     23.5   811.0    0.00       0    -14710.0   76.3
  22    0:30   24.8    95   11.2   156     21.0   811.0    0.00       0    -14710.0   76.1
  22    0:40   25.0    95   13.3   166     27.4   811.0    0.00       0    -14710.0   75.9
  22    0:50   25.2    96   12.8   168     25.6   811.0    0.00       0    -14710.0   74.1
  22    1:00   25.3    96   13.9   166     33.3   811.0    0.00       0    -14710.0   76.1
  22    1:10   25.5    96   15.2   182     29.5   811.0    0.00       0    -14710.0   64.1
  22    1:20   25.6    96   12.5   171     23.4   810.0    0.00       0    -14710.0   58.3
  22    1:30   25.6    96   13.4   166     25.7   810.0    0.00       0    -14710.0   60.9
  22    1:40   25.6    96   13.9   162     25.5   810.0    0.00       0    -14710.0   61.5
  22    1:50   25.6    96   12.3   162     23.0   810.0    0.00       0    -14710.0  104.7
  22    2:00   25.7    96   12.4   161     28.1   810.0    0.00       0    -14710.0  108.3
  22    2:10   25.9    96   10.9   163     23.2   810.0    0.00       0    -14710.0  140.4
  22    2:20   26.1    96   12.4   151     24.3   809.0    0.00       0    -14710.0   91.6
  22    2:30   26.3    96   10.7   164     27.5   809.0    0.00       0    -14710.0  141.3
  22    2:40   26.5    96   13.6   171     28.5   809.0    0.00       0    -14710.0   98.5
  22    2:50   26.6    96   13.3   151     24.2   809.0    0.00       0    -14710.0   49.0
  22    3:00   26.9    96   12.7   169     28.9   808.0    0.00       0    -14710.0   93.3
  22    3:10   27.2    96   11.0   196     23.0   808.0    0.00       0    -14710.0  109.9
  22    3:20   27.6    96   12.2   200     35.7   808.0    0.00       0    -14710.0   62.5
  22    3:30   28.0    96   13.9   206     34.4   808.0    0.00       0    -14710.0   71.4
  22    3:40   28.3    96   14.7   187     38.8   808.0    0.00       0    -14710.0   57.7
  22    3:50   28.6    96   14.2   203     31.9   807.0    0.00       0    -14710.0   71.9
  22    4:00   28.7    96   12.9   199     26.4   807.0    0.00       0    -14710.0   54.0
  22    4:10   28.7    96   15.0   221     32.4   807.0    0.00       0    -14710.0   12.5
  22    4:20   28.9    97   14.2   213     29.5   807.0    0.00       0    -14710.0   97.2
  22    4:30   29.1    97   14.8   208     35.4   807.0    0.00       0    -14710.0   48.3
  22    4:40   29.3    97   18.6   252     34.1   807.0    0.00       0    -14710.0   -9.7

Return to Cisco Butte graphs page.


Western Regional Climate Center,wrcc@dri.edu